Time;durP1;ratioP1;P1;durP2;ratioP2;P2;SDS_P1;SDS_P2;PMS_P1;PMS_P2;Temp;Humidity;BMP_temperature;BMP_pressure;BME280_temperature;BME280_humidity;BME280_pressure;Samples;Min_cycle;Max_cycle;Signal;HPM_P1;HPM_P2
2022/05/31 00:00:12;;;;;;;13.68;8.85;;;;;;;14.35;nan;100567.75;5114552;28;20039;-69
2022/05/31 00:02:38;;;;;;;18.10;9.40;;;;;;;14.37;nan;100570.94;5112096;28;20066;-68
2022/05/31 00:05:05;;;;;;;14.23;8.45;;;;;;;14.35;nan;100578.34;5112186;28;20027;-69
2022/05/31 00:07:30;;;;;;;11.95;8.40;;;;;;;14.23;nan;100573.16;5089216;28;20035;-68
2022/05/31 00:09:56;;;;;;;16.63;9.38;;;;;;;14.13;nan;100562.44;5114516;28;20389;-69
2022/05/31 00:12:21;;;;;;;12.85;8.38;;;;;;;14.14;nan;100574.63;5111105;28;20575;-69
2022/05/31 00:14:46;;;;;;;10.95;8.20;;;;;;;14.14;nan;100578.06;5114402;28;20054;-69
2022/05/31 00:17:12;;;;;;;11.25;8.43;;;;;;;14.19;nan;100590.56;5107917;28;20036;-68
2022/05/31 00:19:37;;;;;;;16.55;8.63;;;;;;;14.13;nan;100587.06;5114782;28;20032;-70
2022/05/31 00:22:05;;;;;;;15.18;8.20;;;;;;;14.16;nan;100602.44;5110095;28;20107;-68
2022/05/31 00:24:31;;;;;;;12.05;8.18;;;;;;;14.13;nan;100586.25;5095155;28;20066;-68
2022/05/31 00:26:56;;;;;;;12.23;8.23;;;;;;;14.08;nan;100571.09;5112986;28;20028;-68
2022/05/31 00:29:22;;;;;;;17.27;7.68;;;;;;;14.14;nan;100575.41;5113051;28;20024;-68
2022/05/31 00:31:49;;;;;;;14.95;8.55;;;;;;;14.12;nan;100585.44;5113891;28;20466;-69
2022/05/31 00:34:16;;;;;;;14.00;8.10;;;;;;;14.21;nan;100607.03;5112073;28;20130;-69
2022/05/31 00:36:45;;;;;;;12.73;7.97;;;;;;;13.96;nan;100560.59;5094993;28;20439;-69
2022/05/31 00:39:11;;;;;;;9.85;7.10;;;;;;;14.21;nan;100594.56;5113514;28;20126;-69
2022/05/31 00:41:39;;;;;;;12.20;8.25;;;;;;;14.17;nan;100598.75;5103839;28;20142;-69
2022/05/31 00:44:10;;;;;;;16.83;7.70;;;;;;;14.05;nan;100571.56;5113465;28;20100;-69
2022/05/31 00:46:45;;;;;;;12.85;8.15;;;;;;;14.26;nan;100607.09;5112293;28;20032;-69
2022/05/31 00:49:16;;;;;;;15.60;7.85;;;;;;;14.23;nan;100602.28;5110157;28;20062;-69
2022/05/31 00:51:46;;;;;;;15.77;7.90;;;;;;;14.15;nan;100595.56;5095757;28;20047;-68
2022/05/31 00:54:16;;;;;;;13.10;7.47;;;;;;;14.17;nan;100603.25;5112510;28;20040;-69
2022/05/31 00:56:44;;;;;;;20.30;7.55;;;;;;;14.13;nan;100583.63;5112309;28;20039;-69
2022/05/31 00:59:19;;;;;;;12.70;7.43;;;;;;;14.16;nan;100586.56;5112544;28;20039;-69
2022/05/31 01:01:51;;;;;;;9.82;7.05;;;;;;;14.23;nan;100592.50;5110373;28;20027;-68
2022/05/31 01:04:17;;;;;;;12.07;6.53;;;;;;;14.17;nan;100580.22;5112691;28;20034;-69
2022/05/31 01:06:43;;;;;;;13.80;7.50;;;;;;;14.16;nan;100568.03;5113027;28;20103;-69
2022/05/31 01:09:08;;;;;;;15.25;7.53;;;;;;;14.28;nan;100588.31;5112664;28;20069;-69
2022/05/31 01:11:41;;;;;;;13.27;7.20;;;;;;;14.22;nan;100580.31;5092812;28;20088;-69
2022/05/31 01:14:07;;;;;;;13.05;8.02;;;;;;;14.29;nan;100597.84;5111531;28;20091;-69
2022/05/31 01:16:33;;;;;;;15.32;7.95;;;;;;;14.21;nan;100597.22;5094721;28;20164;-69
2022/05/31 01:18:59;;;;;;;12.38;7.47;;;;;;;14.18;nan;100600.38;5111232;28;20339;-69
2022/05/31 01:21:24;;;;;;;11.77;7.40;;;;;;;13.97;nan;100572.78;5113371;28;20056;-69
2022/05/31 01:23:56;;;;;;;11.45;6.80;;;;;;;14.18;nan;100604.88;5112964;28;20039;-69
2022/05/31 01:26:53;;;;;;;12.70;7.30;;;;;;;14.26;nan;100617.69;5093871;28;20058;-69
2022/05/31 01:29:31;;;;;;;11.27;6.70;;;;;;;14.26;nan;100605.22;5110093;28;20144;-69
2022/05/31 01:31:59;;;;;;;10.05;6.45;;;;;;;14.28;nan;100615.59;5107206;28;20504;-70
2022/05/31 01:34:45;;;;;;;11.25;6.70;;;;;;;14.27;nan;100624.59;5110891;28;20080;-69
2022/05/31 01:37:10;;;;;;;9.70;7.15;;;;;;;14.22;nan;100624.50;5093015;28;20051;-69
2022/05/31 01:39:46;;;;;;;9.75;6.30;;;;;;;14.25;nan;100632.78;5109797;28;20095;-69
2022/05/31 01:42:34;;;;;;;10.45;6.70;;;;;;;14.26;nan;100622.97;5112573;28;20032;-69
2022/05/31 01:45:06;;;;;;;13.38;6.82;;;;;;;14.34;nan;100625.22;5111372;28;20032;-69
2022/05/31 01:47:33;;;;;;;10.90;7.22;;;;;;;14.37;nan;100623.94;5109510;28;20117;-69
2022/05/31 01:49:59;;;;;;;10.77;7.22;;;;;;;14.33;nan;100613.00;5111230;28;20031;-69
2022/05/31 01:52:25;;;;;;;12.63;6.85;;;;;;;14.33;nan;100612.22;5113629;28;20092;-69
2022/05/31 01:54:53;;;;;;;12.23;7.28;;;;;;;14.35;nan;100624.19;5112140;28;20075;-69
2022/05/31 01:57:19;;;;;;;13.75;7.40;;;;;;;14.41;nan;100632.97;5092124;28;20359;-70
2022/05/31 01:59:49;;;;;;;12.77;8.07;;;;;;;14.42;nan;100639.91;5109057;28;20126;-70
2022/05/31 02:02:16;;;;;;;;;;;;;;;14.42;nan;100637.25;5111102;28;20028;-70
2022/05/31 02:04:42;;;;;;;11.70;7.38;;;;;;;14.39;nan;100632.41;5110855;28;19916;-69
2022/05/31 02:07:17;;;;;;;14.18;7.75;;;;;;;14.41;nan;100627.69;5110242;28;20023;-70
2022/05/31 02:09:45;;;;;;;14.80;7.18;;;;;;;14.42;nan;100616.06;5109827;28;20527;-70
2022/05/31 02:12:12;;;;;;;11.52;6.95;;;;;;;14.45;nan;100619.00;5111511;28;20040;-68
2022/05/31 02:14:38;;;;;;;13.68;7.50;;;;;;;14.40;nan;100607.53;5107397;28;20363;-68
2022/05/31 02:17:03;;;;;;;13.38;7.20;;;;;;;14.37;nan;100608.84;5108489;28;20031;-69
2022/05/31 02:19:29;;;;;;;10.93;6.95;;;;;;;14.50;nan;100623.56;5109416;28;20027;-69
2022/05/31 02:21:58;;;;;;;17.55;7.90;;;;;;;14.49;nan;100616.69;5110179;28;20038;-68
2022/05/31 02:24:25;;;;;;;13.88;7.03;;;;;;;14.42;nan;100619.50;5108320;28;20035;-68
2022/05/31 02:26:51;;;;;;;15.23;7.53;;;;;;;14.53;nan;100633.66;5111364;28;20047;-69
2022/05/31 02:29:19;;;;;;;11.05;7.88;;;;;;;14.55;nan;100638.75;5110286;28;20078;-69
2022/05/31 02:31:46;;;;;;;12.52;7.80;;;;;;;14.51;nan;100630.50;5108135;28;20579;-69
2022/05/31 02:34:14;;;;;;;17.30;7.97;;;;;;;14.57;nan;100642.78;5090340;28;20036;-69
2022/05/31 02:36:39;;;;;;;19.02;7.80;;;;;;;14.55;nan;100630.81;5111554;28;20046;-69
2022/05/31 02:39:06;;;;;;;15.52;8.27;;;;;;;14.59;nan;100638.03;5110156;28;20489;-67
2022/05/31 02:41:31;;;;;;;14.90;7.93;;;;;;;14.51;nan;100629.66;5107039;28;20033;-69
2022/05/31 02:43:58;;;;;;;13.43;7.60;;;;;;;14.63;nan;100641.00;5110066;28;20042;-68
2022/05/31 02:46:24;;;;;;;15.73;8.35;;;;;;;14.55;nan;100621.00;5111788;28;20080;-68
2022/05/31 02:48:50;;;;;;;15.57;7.95;;;;;;;14.51;nan;100608.47;5111807;28;20140;-68
2022/05/31 02:51:15;;;;;;;12.15;7.85;;;;;;;14.52;nan;100618.03;5070688;28;20051;-68
2022/05/31 02:53:41;;;;;;;14.50;8.05;;;;;;;14.60;nan;100628.22;5112694;28;20123;-68
2022/05/31 02:56:07;;;;;;;13.98;7.45;;;;;;;14.67;nan;100650.06;5108530;28;20389;-69
2022/05/31 02:58:34;;;;;;;15.73;8.40;;;;;;;14.65;nan;100652.97;5092509;28;20063;-69
2022/05/31 03:01:00;;;;;;;13.82;7.88;;;;;;;14.67;nan;100656.16;5112980;28;20081;-69
2022/05/31 03:03:26;;;;;;;12.55;8.13;;;;;;;14.68;nan;100649.03;5114211;28;20051;-69
2022/05/31 03:05:51;;;;;;;14.93;8.85;;;;;;;14.65;nan;100641.53;5114743;28;20035;-70
2022/05/31 03:08:18;;;;;;;13.95;8.02;;;;;;;14.66;nan;100643.97;5075868;28;20047;-68
2022/05/31 03:10:50;;;;;;;16.35;8.35;;;;;;;14.62;nan;100631.44;5113319;28;20043;-68
2022/05/31 03:13:22;;;;;;;19.00;8.68;;;;;;;14.58;nan;100623.19;5111890;28;20036;-69
2022/05/31 03:15:48;;;;;;;15.20;8.27;;;;;;;14.61;nan;100627.19;5113886;28;20047;-69
2022/05/31 03:18:20;;;;;;;17.42;8.98;;;;;;;14.59;nan;100622.13;5115164;28;20120;-69
2022/05/31 03:20:57;;;;;;;148.07;73.15;;;;;;;14.70;nan;100638.97;5108279;28;20031;-69
2022/05/31 03:23:50;;;;;;;17.10;10.70;;;;;;;14.85;nan;100657.72;5111795;28;20027;-69
2022/05/31 03:26:18;;;;;;;13.05;8.82;;;;;;;14.77;nan;100652.03;5110883;28;20038;-69
2022/05/31 03:28:44;;;;;;;17.40;9.70;;;;;;;14.77;nan;100649.38;5114716;28;20062;-70
2022/05/31 03:31:10;;;;;;;14.68;8.43;;;;;;;14.68;nan;100633.91;5110830;28;21163;-69
2022/05/31 03:33:35;;;;;;;13.88;9.48;;;;;;;14.73;nan;100649.09;5110112;28;20063;-69
2022/05/31 03:36:01;;;;;;;20.10;8.90;;;;;;;14.81;nan;100653.16;5089231;28;20039;-69
2022/05/31 03:38:27;;;;;;;16.13;8.45;;;;;;;14.78;nan;100632.44;5091230;28;20044;-68
2022/05/31 03:41:01;;;;;;;13.35;8.32;;;;;;;14.65;nan;100615.88;5091840;28;20385;-69
2022/05/31 03:43:32;;;;;;;18.00;9.50;;;;;;;14.78;nan;100643.03;5092174;28;20092;-68
2022/05/31 03:45:58;;;;;;;16.60;9.70;;;;;;;14.77;nan;100644.06;5093110;28;20566;-69
2022/05/31 03:48:23;;;;;;;15.30;9.68;;;;;;;14.75;nan;100652.28;5090254;28;20032;-68
2022/05/31 03:51:04;;;;;;;16.48;9.45;;;;;;;14.76;nan;100661.84;5093582;28;20482;-69
2022/05/31 03:53:30;;;;;;;18.33;9.55;;;;;;;14.55;nan;100644.84;5092814;28;20426;-70
2022/05/31 03:55:56;;;;;;;18.83;9.80;;;;;;;14.65;nan;100662.75;5092916;28;20210;-69
2022/05/31 03:58:22;;;;;;;17.95;9.45;;;;;;;14.63;nan;100670.16;5092641;28;20089;-70
2022/05/31 04:00:48;;;;;;;19.83;9.50;;;;;;;14.52;nan;100661.22;5094211;28;20040;-69
2022/05/31 04:03:14;;;;;;;18.90;9.55;;;;;;;14.54;nan;100658.38;5097716;28;20031;-70
2022/05/31 04:05:40;;;;;;;19.17;9.25;;;;;;;14.47;nan;100648.72;5091291;28;20032;-69
2022/05/31 04:08:08;;;;;;;15.70;9.30;;;;;;;14.58;nan;100657.66;5092294;28;20118;-70
2022/05/31 04:10:35;;;;;;;17.10;9.68;;;;;;;14.55;nan;100636.91;5092470;28;20170;-70
2022/05/31 04:13:00;;;;;;;15.75;9.35;;;;;;;14.66;nan;100651.13;5084125;28;20054;-69
2022/05/31 04:15:27;;;;;;;21.42;9.50;;;;;;;14.66;nan;100654.56;5088708;28;20230;-70
2022/05/31 04:17:52;;;;;;;15.88;8.98;;;;;;;14.73;nan;100665.00;5086511;28;20043;-69
2022/05/31 04:20:18;;;;;;;20.77;9.45;;;;;;;14.74;nan;100669.22;5092735;28;20028;-70
2022/05/31 04:22:43;;;;;;;15.18;9.10;;;;;;;14.76;nan;100679.59;5083924;28;20264;-70
2022/05/31 04:25:09;;;;;;;20.30;10.65;;;;;;;14.80;nan;100678.06;5088446;28;20043;-70
2022/05/31 04:27:34;;;;;;;19.35;8.88;;;;;;;14.78;nan;100673.00;5090687;28;20038;-70
2022/05/31 04:30:00;;;;;;;16.95;9.48;;;;;;;14.88;nan;100682.94;5091271;28;20114;-70
2022/05/31 04:32:25;;;;;;;18.52;8.73;;;;;;;14.82;nan;100668.81;5091184;28;20028;-70
2022/05/31 04:34:52;;;;;;;18.95;8.52;;;;;;;15.05;nan;100691.63;5088680;28;20040;-70
2022/05/31 04:37:17;;;;;;;16.27;8.07;;;;;;;14.99;nan;100665.28;5098169;28;20562;-70
2022/05/31 04:39:42;;;;;;;12.85;8.63;;;;;;;15.09;nan;100684.78;5109602;28;20126;-70
2022/05/31 04:42:09;;;;;;;19.45;8.70;;;;;;;15.25;nan;100692.91;5105566;28;20027;-71
2022/05/31 04:44:34;;;;;;;17.88;8.70;;;;;;;15.20;nan;100675.06;5107593;28;20074;-69
2022/05/31 04:47:02;;;;;;;15.63;9.18;;;;;;;15.32;nan;100690.84;5108165;27;20067;-69
2022/05/31 04:49:28;;;;;;;15.63;8.60;;;;;;;15.35;nan;100682.41;5110663;28;20442;-70
2022/05/31 04:51:53;;;;;;;13.07;8.25;;;;;;;15.38;nan;100676.59;5107041;28;20114;-69
2022/05/31 04:54:20;;;;;;;13.80;8.02;;;;;;;15.42;nan;100685.69;5111060;28;20024;-67
2022/05/31 04:56:46;;;;;;;17.02;8.75;;;;;;;15.49;nan;100690.75;5110801;28;20036;-67
2022/05/31 04:59:12;;;;;;;16.00;7.97;;;;;;;15.52;nan;100688.44;5110560;28;20080;-67
2022/05/31 05:01:38;;;;;;;17.55;9.68;;;;;;;15.65;nan;100699.69;5109066;28;20028;-70
2022/05/31 05:04:04;;;;;;;20.60;10.05;;;;;;;15.63;nan;100683.19;5107200;28;20118;-69
2022/05/31 05:06:30;;;;;;;21.75;10.57;;;;;;;15.73;nan;100696.63;5110887;28;20023;-70
2022/05/31 05:08:59;;;;;;;21.88;10.07;;;;;;;15.72;nan;100692.34;5112832;28;20038;-70
2022/05/31 05:11:24;;;;;;;13.77;8.47;;;;;;;15.75;nan;100691.84;5108876;28;20038;-70
2022/05/31 05:13:53;;;;;;;16.85;9.10;;;;;;;15.82;nan;100692.44;5111297;28;20037;-70
2022/05/31 05:16:19;;;;;;;16.17;8.57;;;;;;;15.84;nan;100685.03;5110880;28;20024;-70
2022/05/31 05:18:44;;;;;;;19.45;8.48;;;;;;;15.77;nan;100657.88;5110312;28;20047;-69
2022/05/31 05:21:13;;;;;;;16.50;7.45;;;;;;;15.97;nan;100689.13;5089412;28;20096;-69
2022/05/31 05:23:39;;;;;;;12.75;7.38;;;;;;;15.98;nan;100669.47;5109340;28;20516;-70
2022/05/31 05:26:05;;;;;;;12.15;6.70;;;;;;;16.08;nan;100700.63;5110465;28;20039;-70
2022/05/31 05:31:42;;;;;;;14.73;6.00;;;;;;;16.17;nan;100685.81;5111978;28;20027;-68
2022/05/31 05:34:08;;;;;;;11.32;6.20;;;;;;;16.10;nan;100671.94;5101331;28;20042;-67
2022/05/31 05:36:34;;;;;;;17.58;6.35;;;;;;;16.21;nan;100678.13;5104518;28;20047;-72
2022/05/31 05:39:00;;;;;;;13.00;6.15;;;;;;;16.21;nan;100676.28;5110801;28;20028;-72
2022/05/31 05:41:28;;;;;;;12.10;5.82;;;;;;;16.29;nan;100681.13;5107855;28;20041;-72
2022/05/31 05:43:54;;;;;;;12.15;5.50;;;;;;;16.16;nan;100655.78;5108670;28;20024;-70
2022/05/31 05:46:28;;;;;;;9.88;5.65;;;;;;;16.36;nan;100676.38;5107816;28;20031;-71
2022/05/31 05:48:53;;;;;;;8.25;5.35;;;;;;;16.32;nan;100653.22;5083015;28;20028;-71
2022/05/31 05:51:21;;;;;;;8.70;5.05;;;;;;;16.49;nan;100661.81;5110895;28;20481;-70
2022/05/31 05:53:46;;;;;;;12.88;5.97;;;;;;;16.34;nan;100635.16;5090416;28;20111;-72
2022/05/31 05:56:13;;;;;;;11.63;5.75;;;;;;;16.55;nan;100641.41;5088278;28;20118;-72
2022/05/31 05:58:40;;;;;;;7.43;4.68;;;;;;;16.68;nan;100645.44;5108249;28;20031;-71
2022/05/31 06:01:11;;;;;;;8.82;5.22;;;;;;;16.82;nan;100646.59;5110924;28;20111;-71
2022/05/31 06:03:37;;;;;;;11.45;5.28;;;;;;;16.96;nan;100642.38;5110610;28;20062;-70
2022/05/31 06:06:03;;;;;;;8.95;5.13;;;;;;;17.09;nan;100642.94;5106777;28;20047;-70
2022/05/31 06:08:37;;;;;;;6.78;4.82;;;;;;;17.14;nan;100646.44;5110622;28;20031;-71
2022/05/31 06:11:08;;;;;;;12.05;5.25;;;;;;;17.25;nan;100675.75;5109780;28;20036;-71
2022/05/31 06:13:39;;;;;;;6.93;5.30;;;;;;;17.28;nan;100683.97;5108721;28;20067;-71
2022/05/31 06:16:06;;;;;;;8.43;5.18;;;;;;;17.21;nan;100678.94;5090596;28;20084;-71
2022/05/31 06:18:36;;;;;;;9.80;5.57;;;;;;;17.35;nan;100692.53;5108290;28;20556;-70
2022/05/31 06:21:06;;;;;;;9.07;5.68;;;;;;;17.21;nan;100652.31;5110803;28;20028;-70
2022/05/31 06:23:33;;;;;;;12.85;5.72;;;;;;;17.48;nan;100685.91;5106659;28;20031;-71
2022/05/31 06:26:00;;;;;;;11.02;6.15;;;;;;;17.54;nan;100687.50;5108359;28;20032;-68
2022/05/31 06:28:25;;;;;;;10.75;5.75;;;;;;;17.59;nan;100687.50;5085490;28;20088;-69
2022/05/31 06:30:51;;;;;;;12.70;6.55;;;;;;;17.69;nan;100694.69;5110899;28;20441;-69
2022/05/31 06:33:16;;;;;;;13.02;7.00;;;;;;;17.68;nan;100681.66;5086815;28;20028;-70
2022/05/31 06:35:41;;;;;;;17.05;7.75;;;;;;;17.64;nan;100662.75;5105555;28;20538;-69
2022/05/31 06:38:07;;;;;;;16.42;7.50;;;;;;;17.91;nan;100693.69;5108168;28;20131;-69
2022/05/31 06:40:33;;;;;;;15.43;8.15;;;;;;;18.00;nan;100698.22;5110318;28;20032;-71
2022/05/31 06:42:59;;;;;;;15.50;7.65;;;;;;;18.07;nan;100700.59;5087904;28;20028;-71
2022/05/31 06:45:25;;;;;;;16.02;8.13;;;;;;;18.04;nan;100688.63;5088860;28;20028;-72
2022/05/31 06:47:51;;;;;;;16.02;8.75;;;;;;;18.13;nan;100707.56;5104870;28;20108;-73
2022/05/31 06:50:17;;;;;;;14.90;7.38;;;;;;;18.14;nan;100708.34;5092090;28;20118;-71
2022/05/31 06:58:10;;;;;;;15.52;7.35;;;;;;;18.24;nan;100695.81;5110239;28;20044;-71
2022/05/31 07:00:35;;;;;;;15.55;7.43;;;;;;;18.30;nan;100706.47;5090442;28;20115;-69
2022/05/31 07:03:01;;;;;;;13.68;7.82;;;;;;;18.33;nan;100709.38;5109414;28;20092;-69
2022/05/31 07:05:26;;;;;;;18.35;8.32;;;;;;;18.36;nan;100711.50;5091376;28;20464;-69
2022/05/31 07:07:53;;;;;;;15.43;7.82;;;;;;;18.40;nan;100712.56;5109557;28;20040;-69
2022/05/31 07:10:20;;;;;;;12.55;6.90;;;;;;;18.39;nan;100700.31;5090192;28;20040;-69
2022/05/31 07:12:46;;;;;;;14.48;7.25;;;;;;;18.47;nan;100707.75;5108930;28;20031;-72
2022/05/31 07:15:12;;;;;;;14.00;7.75;;;;;;;18.62;nan;100719.47;5107080;28;20037;-72
2022/05/31 07:17:38;;;;;;;15.13;8.13;;;;;;;18.74;nan;100714.63;5107507;28;20035;-72
2022/05/31 07:20:08;;;;;;;13.77;7.93;;;;;;;18.87;nan;100727.44;5108553;28;20024;-72
2022/05/31 07:22:35;;;;;;;16.15;8.13;;;;;;;18.95;nan;100718.06;5082027;28;20054;-71
2022/05/31 07:25:01;;;;;;;17.20;8.63;;;;;;;19.07;nan;100720.41;5093529;28;20031;-72
2022/05/31 07:27:27;;;;;;;19.45;8.40;;;;;;;19.09;nan;100705.72;5106099;28;20465;-72
2022/05/31 07:29:52;;;;;;;16.00;8.40;;;;;;;19.24;nan;100720.88;5108679;28;20128;-71
2022/05/31 07:32:18;;;;;;;16.38;8.95;;;;;;;19.29;nan;100717.38;5084351;28;20111;-73
2022/05/31 07:34:43;;;;;;;16.25;8.70;;;;;;;19.40;nan;100718.13;5109411;28;20031;-72
2022/05/31 07:37:10;;;;;;;18.85;9.20;;;;;;;19.52;nan;100731.94;5084117;28;20055;-72
2022/05/31 07:39:35;;;;;;;17.95;10.20;;;;;;;19.58;nan;100717.47;5091549;28;20035;-72
2022/05/31 07:42:01;;;;;;;20.85;10.07;;;;;;;19.65;nan;100727.84;5093104;28;20032;-71
2022/05/31 07:44:27;;;;;;;20.13;10.15;;;;;;;19.65;nan;100709.94;5076885;28;20046;-71
2022/05/31 07:46:54;;;;;;;20.88;11.43;;;;;;;19.77;nan;100723.78;5094796;28;20511;-69
2022/05/31 07:49:20;;;;;;;30.85;14.25;;;;;;;19.64;nan;100697.66;5111003;28;20035;-69
2022/05/31 07:51:46;;;;;;;27.33;13.68;;;;;;;19.83;nan;100724.56;5113180;28;20128;-71
2022/05/31 07:54:11;;;;;;;32.45;13.45;;;;;;;19.87;nan;100738.97;5111947;28;20081;-71
2022/05/31 07:56:37;;;;;;;27.77;12.93;;;;;;;19.80;nan;100734.97;5110415;28;20027;-71
2022/05/31 07:59:03;;;;;;;28.38;13.32;;;;;;;19.88;nan;100734.41;5108159;28;20038;-71
2022/05/31 08:01:29;;;;;;;33.47;14.18;;;;;;;19.97;nan;100738.09;5092251;28;20113;-71
2022/05/31 08:03:55;;;;;;;28.55;12.85;;;;;;;20.05;nan;100744.69;5110801;28;20039;-71
2022/05/31 08:06:23;;;;;;;25.90;12.65;;;;;;;20.06;nan;100754.31;5109255;28;20042;-71
2022/05/31 08:08:49;;;;;;;27.20;11.75;;;;;;;20.08;nan;100747.59;5111837;28;20335;-71
2022/05/31 08:11:21;;;;;;;24.50;12.32;;;;;;;20.14;nan;100751.84;5111265;28;20114;-71
2022/05/31 08:13:46;;;;;;;26.15;13.45;;;;;;;20.24;nan;100742.13;5113199;28;20028;-71
2022/05/31 08:16:16;;;;;;;22.88;12.73;;;;;;;20.23;nan;100735.97;5109393;28;20514;-71
2022/05/31 08:18:42;;;;;;;;;;;;;;;20.32;nan;100744.19;5109692;28;20042;-71
2022/05/31 08:21:10;;;;;;;25.52;12.77;;;;;;;20.32;nan;100741.53;5112926;28;20353;-70
2022/05/31 08:23:36;;;;;;;24.58;12.82;;;;;;;20.32;nan;100734.28;5111417;28;20035;-69
2022/05/31 08:26:04;;;;;;;24.08;12.55;;;;;;;20.38;nan;100741.19;5092083;28;20038;-69
2022/05/31 08:28:30;;;;;;;23.08;12.13;;;;;;;20.43;nan;100748.38;5110523;28;20405;-71
2022/05/31 08:31:02;;;;;;;22.85;11.27;;;;;;;20.33;nan;100730.56;5094144;28;20043;-70
2022/05/31 08:33:28;;;;;;;24.73;11.50;;;;;;;20.45;nan;100743.53;5092937;28;20122;-70
2022/05/31 08:35:54;;;;;;;24.00;12.02;;;;;;;20.49;nan;100751.78;5107717;28;20118;-70
2022/05/31 08:38:20;;;;;;;25.65;13.43;;;;;;;20.42;nan;100752.13;5111322;28;20046;-71
2022/05/31 08:41:07;;;;;;;25.52;13.05;;;;;;;20.41;nan;100750.53;5110015;28;20031;-71
2022/05/31 08:43:35;;;;;;;27.27;11.95;;;;;;;20.40;nan;100746.28;5111813;28;20031;-71
2022/05/31 08:46:07;;;;;;;22.45;12.10;;;;;;;20.38;nan;100751.91;5110104;28;20031;-70
2022/05/31 08:48:41;;;;;;;25.00;11.70;;;;;;;20.36;nan;100743.34;5092481;28;20039;-72
2022/05/31 08:56:56;;;;;;;21.88;10.43;;;;;;;20.33;nan;100745.81;5102822;28;20059;-72
2022/05/31 08:59:46;;;;;;;20.67;10.32;;;;;;;20.30;nan;100741.00;5111037;28;20550;-72
2022/05/31 09:02:18;;;;;;;22.83;10.45;;;;;;;20.16;nan;100722.94;5109150;28;20028;-72
2022/05/31 09:04:59;;;;;;;20.98;10.77;;;;;;;20.15;nan;100728.56;5111716;28;20027;-70
2022/05/31 09:07:33;;;;;;;18.42;9.38;;;;;;;20.27;nan;100741.56;5105528;28;20080;-70
2022/05/31 09:10:05;;;;;;;19.95;10.10;;;;;;;20.25;nan;100744.50;5108499;28;20051;-70
2022/05/31 09:12:49;;;;;;;19.10;9.40;;;;;;;20.04;nan;100719.84;5109645;28;20044;-73
2022/05/31 09:15:50;;;;;;;18.83;9.25;;;;;;;20.29;nan;100748.22;5109847;28;20031;-73
2022/05/31 09:18:26;;;;;;;16.55;9.20;;;;;;;20.27;nan;100744.25;5100323;28;20043;-73
2022/05/31 09:20:53;;;;;;;16.70;8.63;;;;;;;20.30;nan;100743.66;5107015;28;20078;-73
2022/05/31 09:23:25;;;;;;;18.45;8.85;;;;;;;20.25;nan;100741.06;5108127;28;20040;-69
2022/05/31 09:26:10;;;;;;;21.42;8.73;;;;;;;20.25;nan;100738.38;5087954;28;20077;-70
2022/05/31 09:28:38;;;;;;;19.35;9.35;;;;;;;20.31;nan;100745.28;5107420;28;20035;-71
2022/05/31 09:31:22;;;;;;;16.63;8.57;;;;;;;20.27;nan;100744.25;5099073;28;20024;-71
2022/05/31 09:34:06;;;;;;;17.80;8.70;;;;;;;20.27;nan;100746.91;5082125;28;20505;-73
2022/05/31 09:36:42;;;;;;;17.17;8.98;;;;;;;20.28;nan;100748.50;5099920;28;20040;-72
2022/05/31 09:39:20;;;;;;;19.38;8.85;;;;;;;20.35;nan;100751.66;5083650;28;20100;-70
2022/05/31 09:41:58;;;;;;;18.03;9.13;;;;;;;20.35;nan;100748.97;5084591;28;20039;-71
2022/05/31 09:44:39;;;;;;;19.13;9.10;;;;;;;20.28;nan;100748.50;5106715;28;20110;-73
2022/05/31 09:47:14;;;;;;;14.52;8.35;;;;;;;20.26;nan;100743.44;5106699;28;20589;-73
2022/05/31 09:49:51;;;;;;;14.05;7.45;;;;;;;20.36;nan;100745.25;5086701;28;20036;-72
2022/05/31 09:52:34;;;;;;;14.02;8.02;;;;;;;20.39;nan;100750.00;5081839;28;20024;-71
2022/05/31 09:58:06;;;;;;;10.98;6.97;;;;;;;20.55;nan;100753.34;5101484;28;20035;-71
2022/05/31 10:00:32;;;;;;;12.43;7.40;;;;;;;20.57;nan;100752.00;5101949;28;20047;-71
2022/05/31 10:03:12;;;;;;;14.68;8.18;;;;;;;20.59;nan;100755.22;5107446;28;20023;-70
2022/05/31 10:05:42;;;;;;;13.48;7.78;;;;;;;20.63;nan;100751.97;5104107;28;20047;-70
2022/05/31 10:08:31;;;;;;;17.75;7.63;;;;;;;20.56;nan;100752.28;5103082;28;20389;-70
2022/05/31 10:10:56;;;;;;;16.52;8.55;;;;;;;20.59;nan;100752.53;5098549;28;20390;-70
2022/05/31 10:13:42;;;;;;;16.73;8.13;;;;;;;20.68;nan;100755.38;5100939;28;20039;-76
2022/05/31 10:16:24;;;;;;;14.20;7.50;;;;;;;20.72;nan;100755.63;5085770;28;20032;-72
2022/05/31 10:18:56;;;;;;;13.57;7.75;;;;;;;20.82;nan;100752.81;5101651;28;20496;-71
2022/05/31 10:21:32;;;;;;;12.07;7.10;;;;;;;20.90;nan;100746.84;5083754;28;20119;-72
2022/05/31 10:24:06;;;;;;;14.80;7.60;;;;;;;20.80;nan;100738.91;5080959;28;20028;-71
2022/05/31 10:26:38;;;;;;;13.20;6.63;;;;;;;20.96;nan;100739.56;5102257;28;20085;-72
2022/05/31 10:29:24;;;;;;;15.55;6.45;;;;;;;20.98;nan;100732.81;5086372;28;20042;-71
2022/05/31 10:31:50;;;;;;;15.55;6.65;;;;;;;21.13;nan;100749.78;5103643;28;20028;-72
2022/05/31 10:34:31;;;;;;;13.00;6.82;;;;;;;21.19;nan;100754.81;5099659;28;20036;-71
2022/05/31 10:36:59;;;;;;;12.98;6.47;;;;;;;21.25;nan;100755.53;5106265;28;20103;-71
2022/05/31 10:39:28;;;;;;;10.95;6.13;;;;;;;21.14;nan;100719.22;5107715;28;20040;-71
2022/05/31 10:41:55;;;;;;;12.50;7.15;;;;;;;21.37;nan;100742.50;5100651;28;20550;-70
2022/05/31 10:44:36;;;;;;;12.60;7.55;;;;;;;21.30;nan;100755.44;5086157;28;20043;-71
2022/05/31 10:47:01;;;;;;;15.57;7.00;;;;;;;21.34;nan;100753.81;5074985;28;20032;-71
2022/05/31 10:49:26;;;;;;;13.77;7.20;;;;;;;21.39;nan;100752.94;5101264;28;20096;-71
2022/05/31 10:52:07;;;;;;;13.30;7.38;;;;;;;21.49;nan;100754.72;5102936;28;20077;-71
2022/05/31 10:54:51;;;;;;;12.52;7.65;;;;;;;21.51;nan;100733.78;5103455;28;20502;-71
2022/05/31 10:57:32;;;;;;;15.73;8.57;;;;;;;21.59;nan;100743.84;5104374;28;20512;-71
2022/05/31 11:00:30;;;;;;;14.00;8.80;;;;;;;21.51;nan;100741.81;5103172;28;20042;-71
2022/05/31 11:03:17;;;;;;;14.52;7.88;;;;;;;21.59;nan;100746.53;5099199;28;20027;-70
2022/05/31 11:05:47;;;;;;;14.75;9.63;;;;;;;21.61;nan;100747.81;5077468;28;20039;-70
2022/05/31 11:11:29;;;;;;;13.32;8.40;;;;;;;21.57;nan;100743.31;5099346;28;20489;-70
2022/05/31 11:14:21;;;;;;;14.77;7.82;;;;;;;21.63;nan;100736.81;5103411;28;20036;-69
2022/05/31 11:17:05;;;;;;;15.45;8.48;;;;;;;21.65;nan;100740.81;5109183;28;20039;-70
2022/05/31 11:19:49;;;;;;;16.23;8.98;;;;;;;21.66;nan;100737.03;5107989;28;20035;-70
2022/05/31 11:22:31;;;;;;;14.55;8.50;;;;;;;21.61;nan;100726.38;5103708;28;20111;-69
2022/05/31 11:25:39;;;;;;;12.57;8.73;;;;;;;21.69;nan;100734.84;5101390;28;20075;-71
2022/05/31 11:28:26;;;;;;;16.73;9.00;;;;;;;21.71;nan;100738.84;5099561;28;20142;-70
2022/05/31 11:31:04;;;;;;;16.45;8.93;;;;;;;21.68;nan;100715.31;5080496;28;20115;-70
2022/05/31 11:33:58;;;;;;;17.38;10.45;;;;;;;21.84;nan;100722.03;5107389;28;20042;-70
2022/05/31 11:36:50;;;;;;;20.48;11.43;;;;;;;21.67;nan;100732.47;5076301;28;20036;-73
2022/05/31 11:39:27;;;;;;;16.50;9.40;;;;;;;21.75;nan;100718.41;5098187;28;20103;-71
2022/05/31 11:42:11;;;;;;;17.58;10.18;;;;;;;21.82;nan;100720.72;5109535;28;20069;-71
2022/05/31 11:45:15;;;;;;;16.80;9.82;;;;;;;21.88;nan;100715.00;5089811;28;20100;-71
2022/05/31 11:48:11;;;;;;;17.90;9.48;;;;;;;21.86;nan;100713.66;5051201;28;20047;-73
2022/05/31 11:50:47;;;;;;;19.33;9.05;;;;;;;21.83;nan;100711.56;5105854;28;20042;-71
2022/05/31 11:53:33;;;;;;;17.30;10.40;;;;;;;21.79;nan;100706.03;5108263;28;20028;-72
2022/05/31 11:56:08;;;;;;;20.17;10.10;;;;;;;21.74;nan;100697.25;5093093;28;20057;-73
2022/05/31 11:58:50;;;;;;;17.40;10.73;;;;;;;21.77;nan;100710.09;5102467;28;20043;-72
2022/05/31 12:01:21;;;;;;;16.63;10.40;;;;;;;21.88;nan;100706.94;5088189;28;20071;-71
2022/05/31 12:03:52;;;;;;;17.65;11.05;;;;;;;21.94;nan;100709.53;5092264;28;20032;-73
2022/05/31 12:06:35;;;;;;;18.58;10.60;;;;;;;21.93;nan;100702.56;5108564;28;20065;-71
2022/05/31 12:09:13;;;;;;;15.18;9.85;;;;;;;22.03;nan;100708.56;5107759;28;20029;-73